createdAt,value
2022-09-15T00:02:22.931Z,20.95
2022-09-15T00:04:50.153Z,20.52
2022-09-15T00:07:17.069Z,20.35
2022-09-15T00:09:44.008Z,20.75
2022-09-15T00:12:29.805Z,20.48
2022-09-15T00:14:56.924Z,20.77
2022-09-15T00:17:24.315Z,19.63
2022-09-15T00:19:51.454Z,21.88
2022-09-15T00:22:37.383Z,22.23
2022-09-15T00:25:05.430Z,23.30
2022-09-15T00:27:35.113Z,21.20
2022-09-15T00:30:02.336Z,20.35
2022-09-15T00:32:31.393Z,22.50
2022-09-15T00:34:58.341Z,23.67
2022-09-15T00:37:26.174Z,22.23
2022-09-15T00:40:08.658Z,21.77
2022-09-15T00:42:35.641Z,22.10
2022-09-15T00:45:04.216Z,22.83
2022-09-15T00:47:35.669Z,22.77
2022-09-15T00:50:10.910Z,24.30
2022-09-15T00:52:47.959Z,22.60
2022-09-15T00:55:26.810Z,24.08
2022-09-15T00:58:08.783Z,22.50
2022-09-15T01:00:58.038Z,22.30
2022-09-15T01:03:27.152Z,22.60
2022-09-15T01:06:00.958Z,22.50
2022-09-15T01:08:36.133Z,21.25
2022-09-15T01:11:21.136Z,22.90
2022-09-15T01:13:48.174Z,22.95
2022-09-15T01:16:42.641Z,21.25
2022-09-15T01:20:18.065Z,20.92
2022-09-15T01:22:48.785Z,21.95
2022-09-15T01:25:53.180Z,20.05
2022-09-15T01:28:30.349Z,21.60
2022-09-15T01:30:59.918Z,20.80
2022-09-15T01:36:42.924Z,20.48
2022-09-15T01:39:24.881Z,20.25
2022-09-15T01:41:56.922Z,20.95
2022-09-15T01:44:30.810Z,20.02
2022-09-15T01:47:02.045Z,21.13
2022-09-15T01:49:42.612Z,21.40
2022-09-15T01:52:09.553Z,21.42
2022-09-15T01:54:45.820Z,20.83
2022-09-15T01:57:12.849Z,21.38
2022-09-15T01:59:39.763Z,20.38
2022-09-15T02:02:14.689Z,20.65
2022-09-15T02:04:49.294Z,18.38
2022-09-15T02:07:45.019Z,19.63
2022-09-15T02:10:37.493Z,20.23
2022-09-15T02:13:26.593Z,19.30
2022-09-15T02:15:59.836Z,20.55
2022-09-15T02:18:35.189Z,18.70
2022-09-15T02:21:12.124Z,20.05
2022-09-15T02:23:50.740Z,18.65
2022-09-15T02:26:27.703Z,19.35
2022-09-15T02:28:56.133Z,19.58
2022-09-15T02:31:24.962Z,19.80
2022-09-15T02:34:01.966Z,19.25
2022-09-15T02:36:30.167Z,19.40
2022-09-15T02:39:04.744Z,20.00
2022-09-15T02:41:33.589Z,19.58
2022-09-15T02:44:00.633Z,18.00
2022-09-15T02:46:28.198Z,19.92
2022-09-15T02:49:14.157Z,19.50
2022-09-15T02:51:41.201Z,19.25
2022-09-15T02:54:08.509Z,18.10
2022-09-15T02:56:35.469Z,18.63
2022-09-15T02:59:20.663Z,18.70
2022-09-15T03:01:47.746Z,19.70
2022-09-15T03:04:33.086Z,18.85
2022-09-15T03:07:00.092Z,19.40
2022-09-15T03:09:45.496Z,20.48
2022-09-15T03:12:13.152Z,19.17
2022-09-15T03:14:40.084Z,18.90
2022-09-15T03:17:06.977Z,19.27
2022-09-15T03:19:39.951Z,19.40
2022-09-15T03:22:07.298Z,18.08
2022-09-15T03:24:38.110Z,18.55
2022-09-15T03:27:05.656Z,18.63
2022-09-15T03:29:32.569Z,18.27
2022-09-15T03:31:59.653Z,18.02
2022-09-15T03:34:26.723Z,18.58
2022-09-15T03:37:08.397Z,18.85
2022-09-15T03:39:35.406Z,19.27
2022-09-15T03:42:02.369Z,19.02
2022-09-15T03:44:29.277Z,19.88
2022-09-15T03:46:57.028Z,19.63
2022-09-15T03:49:24.830Z,18.55
2022-09-15T03:51:51.768Z,18.50
2022-09-15T03:54:19.675Z,17.80
2022-09-15T03:56:48.959Z,18.67
2022-09-15T03:59:16.304Z,18.10
2022-09-15T04:02:01.722Z,18.13
2022-09-15T04:04:28.877Z,18.35
2022-09-15T04:06:55.793Z,18.30
2022-09-15T04:09:22.699Z,18.17
2022-09-15T04:12:08.125Z,17.92
2022-09-15T04:14:35.255Z,18.85
2022-09-15T04:17:02.194Z,17.77
2022-09-15T04:19:47.488Z,17.50
2022-09-15T04:22:17.860Z,17.42
2022-09-15T04:24:45.995Z,16.88
2022-09-15T04:27:12.908Z,18.55
2022-09-15T04:29:58.440Z,18.50
2022-09-15T04:32:25.873Z,19.15
2022-09-15T04:34:53.282Z,19.77
2022-09-15T04:37:20.276Z,17.92
2022-09-15T04:39:47.680Z,18.98
2022-09-15T04:42:15.055Z,18.70
2022-09-15T04:44:42.092Z,20.10
2022-09-15T04:47:09.065Z,17.98
2022-09-15T04:49:35.991Z,19.27
2022-09-15T04:52:06.632Z,19.48
2022-09-15T04:54:36.146Z,18.35
2022-09-15T04:57:03.113Z,18.27
2022-09-15T04:59:30.055Z,19.80
2022-09-15T05:01:57.059Z,18.85
2022-09-15T05:04:24.130Z,20.02
2022-09-15T05:06:51.070Z,21.65
2022-09-15T05:09:17.988Z,20.63
2022-09-15T05:11:44.926Z,20.77
2022-09-15T05:14:11.895Z,20.45
2022-09-15T05:16:40.089Z,19.85
2022-09-15T05:19:07.258Z,18.63
2022-09-15T05:21:34.211Z,18.63
2022-09-15T05:24:01.378Z,19.77
2022-09-15T05:26:29.977Z,19.92
2022-09-15T05:28:57.360Z,20.10
2022-09-15T05:31:26.961Z,19.55
2022-09-15T05:33:54.644Z,20.42
2022-09-15T05:36:24.954Z,19.35
2022-09-15T05:38:58.897Z,19.77
2022-09-15T05:41:27.465Z,20.20
2022-09-15T05:43:56.975Z,21.48
2022-09-15T05:48:56.508Z,20.08
2022-09-15T05:51:23.939Z,19.13
2022-09-15T05:53:51.143Z,20.15
2022-09-15T05:56:18.740Z,20.25
2022-09-15T05:58:48.081Z,19.60
2022-09-15T06:01:18.355Z,21.42
2022-09-15T06:03:45.530Z,19.85
2022-09-15T06:06:12.652Z,20.15
2022-09-15T06:08:44.491Z,18.52
2022-09-15T06:11:15.496Z,18.38
2022-09-15T06:13:43.380Z,19.90
2022-09-15T06:16:19.499Z,20.25
2022-09-15T06:18:48.292Z,18.67
2022-09-15T06:21:19.114Z,18.63
2022-09-15T06:26:34.701Z,18.83
2022-09-15T06:29:03.418Z,18.35
2022-09-15T06:31:48.748Z,18.77
2022-09-15T06:34:15.851Z,19.58
2022-09-15T06:36:42.936Z,17.73
2022-09-15T06:39:10.083Z,17.60
2022-09-15T06:42:01.224Z,18.35
2022-09-15T06:44:23.969Z,16.63
2022-09-15T06:46:50.964Z,17.65
2022-09-15T06:49:18.171Z,17.27
2022-09-15T06:51:45.251Z,16.88
2022-09-15T06:54:12.214Z,16.63
2022-09-15T06:56:39.147Z,17.75
2022-09-15T06:59:18.252Z,16.60
2022-09-15T07:01:45.192Z,16.25
2022-09-15T07:04:12.184Z,17.70
2022-09-15T07:06:39.725Z,16.13
2022-09-15T07:09:25.069Z,17.33
2022-09-15T07:11:52.023Z,17.33
2022-09-15T07:14:37.342Z,16.23
2022-09-15T07:17:04.343Z,16.05
2022-09-15T07:19:49.773Z,15.48
2022-09-15T07:22:16.791Z,16.05
2022-09-15T07:24:43.738Z,16.38
2022-09-15T07:27:10.792Z,15.65
2022-09-15T07:29:38.737Z,15.10
2022-09-15T07:32:24.324Z,15.65
2022-09-15T07:34:53.687Z,14.77
2022-09-15T07:37:23.421Z,15.35
2022-09-15T07:39:50.349Z,15.85
2022-09-15T07:42:17.296Z,17.98
2022-09-15T07:44:44.221Z,17.42
2022-09-15T07:47:11.606Z,15.93
2022-09-15T07:49:38.502Z,16.10
2022-09-15T07:52:05.427Z,16.27
2022-09-15T07:54:32.325Z,15.70
2022-09-15T07:56:59.308Z,15.32
2022-09-15T07:59:26.410Z,16.98
2022-09-15T08:01:53.781Z,15.18
2022-09-15T08:04:39.388Z,15.13
2022-09-15T08:07:06.488Z,16.17
2022-09-15T08:09:33.381Z,15.35
2022-09-15T08:12:09.359Z,14.57
2022-09-15T08:14:36.591Z,13.75
2022-09-15T08:17:09.381Z,15.48
2022-09-15T08:19:38.504Z,14.43
2022-09-15T08:22:24.030Z,14.15
2022-09-15T08:24:50.934Z,14.63
2022-09-15T08:27:17.840Z,13.70
2022-09-15T08:29:44.977Z,13.43
2022-09-15T08:32:11.974Z,12.70
2022-09-15T08:34:57.319Z,12.80
2022-09-15T08:37:24.480Z,12.52
2022-09-15T08:39:51.937Z,12.68
2022-09-15T08:42:20.874Z,11.85
2022-09-15T08:45:09.349Z,11.02
2022-09-15T08:47:40.712Z,11.65
2022-09-15T08:50:15.405Z,11.27
2022-09-15T08:52:55.589Z,10.82
2022-09-15T08:55:41.448Z,10.50
2022-09-15T08:58:14.972Z,10.70
2022-09-15T09:00:45.304Z,11.07
2022-09-15T09:03:33.699Z,10.77
2022-09-15T09:06:12.464Z,11.00
2022-09-15T09:09:01.261Z,11.07
2022-09-15T09:12:30.414Z,11.13
2022-09-15T09:15:08.126Z,10.38
2022-09-15T09:17:45.070Z,9.48
2022-09-15T09:20:22.531Z,9.38
2022-09-15T09:23:12.018Z,9.43
2022-09-15T09:25:40.956Z,9.90
2022-09-15T09:28:31.576Z,9.48
2022-09-15T09:31:21.287Z,9.48
2022-09-15T09:34:07.773Z,8.52
2022-09-15T09:36:58.561Z,8.90
2022-09-15T09:39:27.645Z,8.82
2022-09-15T09:41:55.207Z,7.90
2022-09-15T09:44:31.518Z,7.85
2022-09-15T09:46:59.187Z,7.70
2022-09-15T09:49:39.869Z,6.93
2022-09-15T09:52:06.822Z,7.00
2022-09-15T09:54:35.433Z,5.80
2022-09-15T09:57:14.124Z,6.00
2022-09-15T09:59:46.606Z,6.67
2022-09-15T10:02:16.037Z,5.85
2022-09-15T10:04:51.481Z,5.15
2022-09-15T10:07:22.885Z,5.82
2022-09-15T10:09:55.668Z,5.70
2022-09-15T10:12:34.341Z,5.30
2022-09-15T10:15:04.085Z,4.40
2022-09-15T10:17:44.581Z,4.32
2022-09-15T10:20:38.325Z,3.55
2022-09-15T10:23:26.858Z,3.78
2022-09-15T10:26:15.130Z,4.03
2022-09-15T10:29:15.806Z,4.22
2022-09-15T10:31:44.649Z,3.75
2022-09-15T10:34:31.576Z,3.63
2022-09-15T10:37:17.090Z,3.20
2022-09-15T10:40:39.134Z,3.38
2022-09-15T10:43:32.882Z,3.08
2022-09-15T10:46:13.764Z,3.10
2022-09-15T10:48:46.463Z,2.92
2022-09-15T10:51:41.966Z,1.70
2022-09-15T10:54:51.661Z,1.90
2022-09-15T10:57:42.464Z,2.75
2022-09-15T11:00:40.201Z,2.08
2022-09-15T11:03:46.650Z,1.80
2022-09-15T11:06:18.716Z,2.00
2022-09-15T11:09:02.000Z,2.30
2022-09-15T11:11:36.999Z,2.10
2022-09-15T11:14:38.277Z,1.92
2022-09-15T11:17:30.045Z,2.38
2022-09-15T11:20:18.737Z,2.50
2022-09-15T11:23:08.572Z,3.30
2022-09-15T11:25:59.460Z,3.03
2022-09-15T11:28:52.480Z,2.88
2022-09-15T11:31:42.378Z,3.30
2022-09-15T11:34:22.029Z,2.85
2022-09-15T11:39:46.174Z,2.53
2022-09-15T11:42:42.103Z,2.47
2022-09-15T11:45:23.792Z,2.78
2022-09-15T11:48:27.784Z,3.33
2022-09-15T11:50:58.164Z,2.83
2022-09-15T11:53:37.953Z,3.63
2022-09-15T11:56:24.245Z,3.33
2022-09-15T11:59:27.429Z,3.40
2022-09-15T12:02:16.057Z,3.35
2022-09-15T12:04:58.743Z,2.43
2022-09-15T12:07:32.630Z,2.63
2022-09-15T12:10:07.267Z,2.78
2022-09-15T12:12:35.773Z,2.35
2022-09-15T12:15:02.686Z,2.63
2022-09-15T12:17:43.580Z,2.47
2022-09-15T12:20:34.561Z,2.00
2022-09-15T12:23:13.370Z,2.17
2022-09-15T12:26:08.237Z,2.28
2022-09-15T12:29:02.632Z,2.28
2022-09-15T12:31:32.557Z,2.10
2022-09-15T12:34:03.956Z,2.15
2022-09-15T12:36:48.950Z,2.20
2022-09-15T12:39:45.744Z,2.40
2022-09-15T12:42:25.578Z,2.47
2022-09-15T12:45:27.161Z,2.30
2022-09-15T12:47:57.009Z,1.77
2022-09-15T12:50:30.316Z,2.20
2022-09-15T12:53:23.121Z,2.00
2022-09-15T12:55:53.176Z,2.22
2022-09-15T12:58:36.613Z,2.10
2022-09-15T13:01:18.960Z,1.88
2022-09-15T13:04:12.387Z,1.90
2022-09-15T13:06:39.334Z,2.20
2022-09-15T13:09:06.153Z,2.13
2022-09-15T13:14:41.958Z,1.83
2022-09-15T13:17:22.507Z,2.00
2022-09-15T13:19:53.068Z,2.00
2022-09-15T13:22:40.821Z,1.65
2022-09-15T13:25:10.723Z,1.70
2022-09-15T13:27:59.906Z,1.90
2022-09-15T13:30:36.276Z,1.88
2022-09-15T13:33:21.492Z,2.45
2022-09-15T13:35:51.496Z,1.90
2022-09-15T13:38:37.000Z,1.80
2022-09-15T13:41:25.557Z,1.70
2022-09-15T13:44:09.953Z,1.90
2022-09-15T13:47:04.229Z,2.00
2022-09-15T13:49:57.180Z,1.88
2022-09-15T13:52:47.702Z,2.00
2022-09-15T13:55:39.278Z,1.92
2022-09-15T14:01:05.832Z,2.35
2022-09-15T14:03:53.611Z,1.98
2022-09-15T14:06:25.868Z,1.80
2022-09-15T14:08:56.799Z,2.40
2022-09-15T14:11:28.644Z,2.05
2022-09-15T14:13:58.370Z,2.28
2022-09-15T14:16:34.211Z,1.90
2022-09-15T14:19:04.464Z,2.28
2022-09-15T14:21:33.764Z,2.47
2022-09-15T14:24:06.234Z,2.08
2022-09-15T14:26:35.668Z,1.88
2022-09-15T14:29:22.268Z,2.35
2022-09-15T14:31:49.410Z,2.15
2022-09-15T14:34:23.111Z,2.10
2022-09-15T14:37:19.517Z,1.88
2022-09-15T14:39:53.286Z,2.10
2022-09-15T14:42:22.362Z,2.67
2022-09-15T14:48:00.294Z,1.92
2022-09-15T14:50:32.483Z,2.13
2022-09-15T14:53:10.181Z,2.40
2022-09-15T14:56:11.403Z,1.67
2022-09-15T14:58:50.786Z,1.50
2022-09-15T15:01:27.631Z,2.03
2022-09-15T15:04:12.921Z,1.83
2022-09-15T15:06:51.607Z,2.28
2022-09-15T15:09:43.948Z,1.73
2022-09-15T15:12:20.764Z,2.13
2022-09-15T15:14:47.839Z,2.38
2022-09-15T15:17:33.559Z,2.08
2022-09-15T15:20:09.369Z,1.60
2022-09-15T15:22:37.634Z,1.58
2022-09-15T15:25:40.065Z,2.13
2022-09-15T15:28:07.587Z,1.70
2022-09-15T15:30:43.763Z,1.75
2022-09-15T15:33:20.039Z,1.90
2022-09-15T15:36:09.501Z,2.22
2022-09-15T15:38:54.316Z,1.80
2022-09-15T15:41:26.762Z,1.50
2022-09-15T15:44:14.453Z,1.27
2022-09-15T15:46:47.370Z,2.60
2022-09-15T15:49:14.299Z,1.65
2022-09-15T15:51:41.236Z,1.40
2022-09-15T15:54:08.201Z,1.50
2022-09-15T15:56:44.322Z,1.50
2022-09-15T15:59:15.585Z,1.50
2022-09-15T16:01:43.102Z,1.85
2022-09-15T16:04:11.263Z,1.50
2022-09-15T16:06:39.085Z,1.42
2022-09-15T16:09:06.392Z,1.90
2022-09-15T16:11:33.377Z,1.55
2022-09-15T16:14:18.557Z,1.67
2022-09-15T16:16:45.753Z,1.48
2022-09-15T16:19:13.560Z,1.70
2022-09-15T16:21:46.379Z,1.73
2022-09-15T16:24:31.839Z,1.70
2022-09-15T16:26:58.879Z,1.55
2022-09-15T16:29:29.752Z,1.83
2022-09-15T16:32:16.416Z,1.50
2022-09-15T16:34:43.529Z,1.40
2022-09-15T16:37:10.469Z,1.33
2022-09-15T16:39:37.490Z,1.40
2022-09-15T16:42:04.635Z,1.10
2022-09-15T16:44:40.505Z,1.55
2022-09-15T16:47:07.660Z,1.60
2022-09-15T16:49:37.333Z,1.88
2022-09-15T16:52:04.328Z,1.77
2022-09-15T16:54:49.695Z,1.63
2022-09-15T16:57:19.383Z,1.45
2022-09-15T16:59:46.382Z,1.50
2022-09-15T17:02:14.109Z,2.10
2022-09-15T17:04:59.725Z,2.17
2022-09-15T17:07:26.984Z,2.03
2022-09-15T17:09:53.900Z,1.60
2022-09-15T17:12:23.607Z,1.85
2022-09-15T17:15:29.943Z,1.67
2022-09-15T17:17:57.449Z,1.45
2022-09-15T17:20:25.203Z,1.70
2022-09-15T17:23:37.810Z,1.42
2022-09-15T17:26:10.489Z,1.70
2022-09-15T17:28:37.709Z,1.42
2022-09-15T17:31:12.916Z,1.88
2022-09-15T17:33:58.166Z,2.08
2022-09-15T17:36:25.730Z,1.90
2022-09-15T17:39:11.237Z,1.50
2022-09-15T17:41:38.561Z,2.00
2022-09-15T17:44:10.566Z,2.03
2022-09-15T17:46:55.984Z,1.77
2022-09-15T17:49:23.265Z,1.95
2022-09-15T17:51:50.231Z,1.80
2022-09-15T17:54:17.197Z,1.65
2022-09-15T17:56:44.130Z,2.10
2022-09-15T17:59:29.484Z,1.67
2022-09-15T18:01:56.736Z,1.83
2022-09-15T18:04:23.838Z,2.15
2022-09-15T18:06:51.041Z,1.88
2022-09-15T18:09:18.389Z,2.00
2022-09-15T18:12:04.638Z,1.55
2022-09-15T18:14:33.599Z,1.70
2022-09-15T18:17:00.505Z,1.88
2022-09-15T18:19:27.644Z,1.77
2022-09-15T18:21:54.576Z,2.00
2022-09-15T18:24:21.494Z,2.28
2022-09-15T18:26:48.496Z,1.88
2022-09-15T18:29:33.832Z,2.13
2022-09-15T18:32:03.000Z,1.80
2022-09-15T18:34:30.150Z,1.85
2022-09-15T18:37:14.926Z,1.88
2022-09-15T18:39:42.217Z,1.83
2022-09-15T18:42:29.929Z,2.10
2022-09-15T18:44:58.989Z,1.60
2022-09-15T18:47:25.882Z,1.90
2022-09-15T18:50:13.010Z,1.98
2022-09-15T18:52:41.269Z,2.00
2022-09-15T18:55:26.480Z,2.22
2022-09-15T18:57:53.470Z,2.20
2022-09-15T19:00:23.057Z,1.98
2022-09-15T19:05:17.222Z,1.65
2022-09-15T19:08:04.154Z,1.90
2022-09-15T19:10:31.254Z,1.67
2022-09-15T19:12:58.337Z,1.80
2022-09-15T19:15:25.254Z,1.75
2022-09-15T19:17:53.398Z,2.10
2022-09-15T19:20:20.447Z,1.52
2022-09-15T19:22:47.482Z,1.98
2022-09-15T19:25:14.477Z,1.92
2022-09-15T19:27:41.623Z,1.77
2022-09-15T19:30:27.029Z,1.85
2022-09-15T19:32:54.145Z,1.73
2022-09-15T19:35:21.210Z,1.30
2022-09-15T19:38:06.533Z,1.60
2022-09-15T19:40:33.620Z,1.88
2022-09-15T19:43:03.314Z,1.52
2022-09-15T19:45:30.227Z,1.23
2022-09-15T19:48:15.895Z,1.35
2022-09-15T19:50:42.881Z,2.30
2022-09-15T19:53:09.765Z,2.28
2022-09-15T19:55:36.684Z,1.52
2022-09-15T19:58:22.620Z,1.52
2022-09-15T20:00:53.998Z,1.48
2022-09-15T20:03:21.944Z,1.80
2022-09-15T20:05:51.252Z,1.52
2022-09-15T20:08:38.207Z,1.77
2022-09-15T20:11:07.351Z,1.25
2022-09-15T20:13:39.169Z,1.75
2022-09-15T20:16:06.503Z,1.35
2022-09-15T20:18:36.438Z,2.00
2022-09-15T20:21:07.070Z,1.80
2022-09-15T20:23:34.352Z,1.80
2022-09-15T20:26:04.979Z,1.67
2022-09-15T20:28:32.911Z,1.52
2022-09-15T20:31:09.393Z,2.05
2022-09-15T20:33:38.507Z,1.70
2022-09-15T20:36:09.011Z,2.13
2022-09-15T20:38:37.315Z,1.60
2022-09-15T20:41:06.377Z,1.83
2022-09-15T20:43:36.496Z,1.75
2022-09-15T20:46:22.939Z,2.13
2022-09-15T20:48:51.304Z,1.83
2022-09-15T20:51:36.828Z,2.03
2022-09-15T20:54:04.817Z,1.50
2022-09-15T20:56:49.865Z,2.08
2022-09-15T20:59:35.642Z,1.83
2022-09-15T21:02:04.783Z,1.73
2022-09-15T21:04:50.319Z,1.63
2022-09-15T21:07:17.285Z,1.52
2022-09-15T21:09:44.501Z,1.85
2022-09-15T21:12:11.493Z,1.50
2022-09-15T21:14:38.396Z,1.67
2022-09-15T21:17:23.917Z,1.60
2022-09-15T21:19:50.960Z,1.60
2022-09-15T21:22:17.856Z,1.98
2022-09-15T21:25:03.557Z,1.70
2022-09-15T21:27:30.997Z,1.50
2022-09-15T21:29:57.905Z,1.60
2022-09-15T21:32:24.808Z,2.10
2022-09-15T21:34:51.761Z,1.67
2022-09-15T21:37:18.897Z,1.60
2022-09-15T21:39:46.064Z,1.80
2022-09-15T21:42:31.697Z,1.52
2022-09-15T21:44:58.805Z,1.80
2022-09-15T21:47:25.741Z,2.13
2022-09-15T21:49:52.724Z,1.83
2022-09-15T21:52:19.780Z,1.90
2022-09-15T21:54:46.725Z,1.40
2022-09-15T21:57:15.223Z,1.85
2022-09-15T21:59:42.108Z,1.83
2022-09-15T22:02:09.880Z,1.60
2022-09-15T22:04:38.150Z,2.10
2022-09-15T22:07:17.250Z,2.10
2022-09-15T22:09:44.155Z,1.70
2022-09-15T22:12:11.097Z,1.50
2022-09-15T22:14:38.032Z,1.30
2022-09-15T22:17:23.412Z,2.03
2022-09-15T22:19:50.559Z,1.90
2022-09-15T22:22:17.459Z,1.60
2022-09-15T22:24:44.922Z,1.83
2022-09-15T22:27:11.842Z,2.13
2022-09-15T22:29:38.728Z,2.00
2022-09-15T22:32:05.709Z,1.58
2022-09-15T22:34:32.631Z,1.90
2022-09-15T22:36:59.566Z,2.03
2022-09-15T22:39:58.597Z,1.67
2022-09-15T22:42:27.224Z,1.58
2022-09-15T22:47:34.281Z,1.70
2022-09-15T22:50:01.253Z,2.03
2022-09-15T22:52:28.188Z,1.73
2022-09-15T22:54:55.116Z,1.30
2022-09-15T22:57:37.194Z,1.88
2022-09-15T23:00:04.337Z,1.85
2022-09-15T23:02:31.427Z,1.58
2022-09-15T23:05:16.933Z,1.95
2022-09-15T23:07:44.023Z,2.08
2022-09-15T23:10:10.977Z,1.90
2022-09-15T23:12:38.738Z,2.08
2022-09-15T23:15:07.142Z,2.05
2022-09-15T23:17:34.387Z,2.45
2022-09-15T23:20:19.870Z,2.25
2022-09-15T23:22:49.621Z,1.80
2022-09-15T23:25:17.140Z,2.33
2022-09-15T23:27:44.166Z,1.88
2022-09-15T23:30:29.710Z,1.50
2022-09-15T23:32:57.539Z,1.88
2022-09-15T23:35:24.718Z,1.70
2022-09-15T23:37:51.678Z,1.80
2022-09-15T23:40:37.017Z,1.80
2022-09-15T23:43:04.118Z,1.60
2022-09-15T23:45:51.080Z,1.90
2022-09-15T23:48:18.396Z,2.33
2022-09-15T23:50:45.627Z,1.90
2022-09-15T23:53:12.694Z,2.58
2022-09-15T23:55:54.898Z,1.90
2022-09-15T23:58:21.825Z,2.20
